Time;durP1;ratioP1;P1;durP2;ratioP2;P2;SDS_P1;SDS_P2;PMS_P1;PMS_P2;Temp;Humidity;BMP_temperature;BMP_pressure;BME280_temperature;BME280_humidity;BME280_pressure;Samples;Min_cycle;Max_cycle;Signal;HPM_P1;HPM_P2
2022/12/22 03:25:52;;;;;;;11.90;8.60;;;;;;;;;;108451;1265;40130;-35
2022/12/22 03:28:28;;;;;;;11.00;9.00;;;;;;;;;;108525;1267;43601;-35
2022/12/22 03:31:05;;;;;;;10.70;9.10;;;;;;;;;;108511;1266;42666;-35
2022/12/22 03:33:40;;;;;;;10.00;8.30;;;;;;;;;;108568;1265;39272;-35
2022/12/22 03:36:15;;;;;;;10.70;8.60;;;;;;;;;;108431;1257;45688;-35
2022/12/22 03:38:51;;;;;;;10.80;8.70;;;;;;;;;;107855;1266;897903;-35
2022/12/22 03:47:10;;;;;;;10.90;8.80;;;;;;;;;;108553;1267;40377;-35
2022/12/22 03:49:44;;;;;;;11.10;8.30;;;;;;;;;;108487;1269;43432;-35
2022/12/22 03:52:18;;;;;;;11.20;8.60;;;;;;;;;;108515;1267;43561;-35
2022/12/22 03:54:52;;;;;;;10.80;8.70;;;;;;;;;;108487;1262;39155;-35
2022/12/22 03:57:26;;;;;;;11.20;8.40;;;;;;;;;;108510;1267;41520;-35
2022/12/22 04:00:00;;;;;;;10.80;8.70;;;;;;;;;;108473;1267;43409;-35
2022/12/22 04:02:35;;;;;;;11.20;8.40;;;;;;;;;;108479;1279;42234;-35
2022/12/22 04:05:10;;;;;;;10.30;8.30;;;;;;;;;;108477;1263;39303;-35
2022/12/22 04:07:45;;;;;;;10.40;8.80;;;;;;;;;;108541;1266;40413;-35
2022/12/22 04:13:11;;;;;;;10.00;7.80;;;;;;;;;;108512;1267;42458;-35
2022/12/22 04:15:46;;;;;;;10.70;8.30;;;;;;;;;;108509;1256;39115;-35
2022/12/22 04:18:20;;;;;;;9.70;7.60;;;;;;;;;;108510;1267;40505;-35
2022/12/22 04:20:54;;;;;;;9.60;7.90;;;;;;;;;;108529;1267;43393;-35
2022/12/22 04:23:28;;;;;;;10.00;8.10;;;;;;;;;;108520;1273;42625;-35
2022/12/22 04:26:03;;;;;;;10.80;8.50;;;;;;;;;;108477;1257;40268;-35
2022/12/22 04:28:37;;;;;;;10.10;7.90;;;;;;;;;;108530;1267;40626;-35
2022/12/22 04:31:11;;;;;;;10.20;8.10;;;;;;;;;;107892;1271;896442;-35
2022/12/22 04:33:46;;;;;;;10.10;8.20;;;;;;;;;;108388;1267;175501;-35
2022/12/22 04:36:21;;;;;;;10.20;8.90;;;;;;;;;;108455;1257;39102;-35
2022/12/22 04:38:55;;;;;;;10.70;8.00;;;;;;;;;;107813;1264;896211;-35
2022/12/22 04:41:29;;;;;;;9.30;7.40;;;;;;;;;;108505;1266;43576;-35
2022/12/22 04:44:04;;;;;;;10.00;8.10;;;;;;;;;;108485;1266;42514;-35
2022/12/22 04:46:38;;;;;;;10.30;8.00;;;;;;;;;;108436;1259;38913;-35
2022/12/22 04:49:13;;;;;;;9.50;8.00;;;;;;;;;;108525;1270;40603;-35
2022/12/22 04:51:47;;;;;;;10.50;8.60;;;;;;;;;;108533;1266;43159;-35
2022/12/22 04:54:22;;;;;;;9.50;7.90;;;;;;;;;;108536;1268;42416;-35
2022/12/22 04:56:56;;;;;;;9.60;8.20;;;;;;;;;;108514;1257;40300;-35
2022/12/22 04:59:31;;;;;;;9.20;7.40;;;;;;;;;;108472;1266;41673;-35
2022/12/22 05:02:05;;;;;;;10.50;8.20;;;;;;;;;;108489;1267;44806;-35
2022/12/22 05:04:39;;;;;;;10.20;8.20;;;;;;;;;;108502;1266;43830;-35
2022/12/22 05:07:14;;;;;;;10.00;8.30;;;;;;;;;;108490;1265;39178;-35
2022/12/22 05:09:50;;;;;;;9.00;7.10;;;;;;;;;;108539;1266;40482;-35
2022/12/22 05:15:16;;;;;;;9.10;7.30;;;;;;;;;;108517;1272;42401;-35
2022/12/22 05:17:50;;;;;;;8.60;7.30;;;;;;;;;;108480;1257;39188;-35
2022/12/22 05:20:25;;;;;;;9.80;7.40;;;;;;;;;;108517;1266;40414;-35
2022/12/22 05:23:00;;;;;;;9.10;7.20;;;;;;;;;;108474;1270;43436;-35
2022/12/22 05:25:34;;;;;;;9.60;7.20;;;;;;;;;;108534;1267;42737;-35
2022/12/22 05:28:08;;;;;;;10.00;7.60;;;;;;;;;;108467;1257;39419;-35
2022/12/22 05:30:43;;;;;;;9.10;7.40;;;;;;;;;;108488;1266;40633;-35
2022/12/22 05:33:18;;;;;;;10.00;7.40;;;;;;;;;;108537;1267;43395;-35
2022/12/22 05:35:53;;;;;;;9.10;7.50;;;;;;;;;;108535;1280;42578;-35
2022/12/22 05:38:28;;;;;;;8.80;7.70;;;;;;;;;;108454;1263;40526;-35
2022/12/22 05:41:02;;;;;;;8.80;7.00;;;;;;;;;;108507;1266;40463;-35
2022/12/22 05:43:38;;;;;;;9.70;7.40;;;;;;;;;;108483;1270;43388;-35
2022/12/22 05:46:13;;;;;;;8.70;7.00;;;;;;;;;;108495;1265;42681;-35
2022/12/22 05:48:48;;;;;;;8.30;7.10;;;;;;;;;;108484;1257;39150;-35
2022/12/22 05:51:23;;;;;;;8.00;6.30;;;;;;;;;;108436;1272;175853;-35
2022/12/22 05:53:57;;;;;;;9.30;7.50;;;;;;;;;;108521;1265;43406;-35
2022/12/22 05:56:31;;;;;;;9.00;7.00;;;;;;;;;;108531;1265;42534;-35
2022/12/22 05:59:06;;;;;;;9.20;7.20;;;;;;;;;;108417;1256;45004;-35
2022/12/22 06:01:39;;;;;;;8.60;7.20;;;;;;;;;;108510;1267;40751;-35
2022/12/22 06:04:14;;;;;;;10.20;8.70;;;;;;;;;;108466;1270;43603;-35
2022/12/22 06:06:50;;;;;;;15.00;13.50;;;;;;;;;;108497;1267;42512;-35
2022/12/22 06:09:25;;;;;;;17.10;15.30;;;;;;;;;;108521;1261;44674;-35
2022/12/22 06:11:59;;;;;;;16.50;14.80;;;;;;;;;;108518;1270;40440;-35
2022/12/22 06:14:36;;;;;;;16.70;15.00;;;;;;;;;;108539;1266;43630;-35
2022/12/22 06:17:11;;;;;;;17.40;15.60;;;;;;;;;;108516;1267;42602;-35
2022/12/22 06:19:45;;;;;;;17.20;15.50;;;;;;;;;;108509;1257;44919;-35
2022/12/22 06:22:20;;;;;;;17.10;15.40;;;;;;;;;;108562;1272;40621;-35
2022/12/22 06:24:55;;;;;;;16.40;14.80;;;;;;;;;;108517;1265;43634;-35
2022/12/22 06:27:31;;;;;;;17.00;15.40;;;;;;;;;;108511;1266;43248;-35
2022/12/22 06:30:07;;;;;;;15.70;14.20;;;;;;;;;;108489;1261;44759;-35
2022/12/22 06:32:42;;;;;;;16.10;14.40;;;;;;;;;;108548;1280;40159;-35
2022/12/22 06:35:17;;;;;;;16.30;14.60;;;;;;;;;;108506;1267;43621;-35
2022/12/22 06:37:52;;;;;;;16.30;14.60;;;;;;;;;;108530;1267;42704;-35
2022/12/22 06:40:26;;;;;;;16.90;14.90;;;;;;;;;;108507;1259;44761;-35
2022/12/22 06:43:08;;;;;;;15.40;14.00;;;;;;;;;;108500;1266;40897;-35
2022/12/22 06:45:43;;;;;;;;;;;;;;;;;;108506;1267;43436;-35
2022/12/22 06:48:17;;;;;;;15.30;13.70;;;;;;;;;;108521;1267;42207;-35
2022/12/22 06:50:52;;;;;;;16.10;14.00;;;;;;;;;;108446;1270;46396;-35
2022/12/22 06:53:25;;;;;;;15.00;13.50;;;;;;;;;;108462;1267;41102;-35
2022/12/22 06:56:00;;;;;;;15.50;13.90;;;;;;;;;;108485;1267;44833;-35
2022/12/22 06:58:34;;;;;;;14.70;13.20;;;;;;;;;;108449;1267;42561;-35
2022/12/22 07:01:08;;;;;;;14.50;12.80;;;;;;;;;;108542;1267;46962;-35
2022/12/22 07:03:43;;;;;;;14.40;12.90;;;;;;;;;;108505;1267;40494;-35
2022/12/22 07:06:18;;;;;;;14.90;13.30;;;;;;;;;;108482;1267;44730;-35
2022/12/22 07:08:53;;;;;;;14.60;13.00;;;;;;;;;;108460;1266;42939;-35
2022/12/22 07:11:27;;;;;;;17.20;13.30;;;;;;;;;;108467;1266;45456;-36
2022/12/22 07:14:01;;;;;;;13.70;12.20;;;;;;;;;;108498;1267;40669;-35
2022/12/22 07:16:35;;;;;;;14.80;13.20;;;;;;;;;;108465;1267;44763;-35
2022/12/22 07:19:10;;;;;;;13.50;12.10;;;;;;;;;;108491;1270;43635;-35
2022/12/22 07:21:46;;;;;;;12.90;11.60;;;;;;;;;;108533;1266;46545;-36
2022/12/22 07:24:23;;;;;;;13.40;12.00;;;;;;;;;;108506;1266;40423;-35
2022/12/22 07:26:58;;;;;;;14.10;11.50;;;;;;;;;;108521;1272;43629;-36
2022/12/22 07:29:32;;;;;;;14.60;12.10;;;;;;;;;;108495;1267;42690;-35
2022/12/22 07:32:07;;;;;;;13.90;11.50;;;;;;;;;;108532;1257;40650;-36
2022/12/22 07:34:42;;;;;;;12.90;11.30;;;;;;;;;;108275;1269;40525;-35
2022/12/22 07:37:18;;;;;;;12.10;10.80;;;;;;;;;;108316;1268;43613;-35
2022/12/22 07:39:53;;;;;;;12.90;11.10;;;;;;;;;;108294;1267;42572;-35
2022/12/22 07:42:46;;;;;;;13.00;10.90;;;;;;;;;;108432;1269;39220;-35
2022/12/22 07:45:23;;;;;;;13.20;10.60;;;;;;;;;;108454;1282;40864;-36
2022/12/22 07:50:23;;;;;;;12.70;10.50;;;;;;;;;;108439;1268;43444;-35
2022/12/22 07:51:02;;;;;;;12.00;10.60;;;;;;;;;;108243;1260;175726;-35
2022/12/22 07:53:36;;;;;;;12.30;10.60;;;;;;;;;;108321;1269;39338;-35
2022/12/22 07:56:10;;;;;;;12.50;10.50;;;;;;;;;;108300;1269;40470;-35
2022/12/22 07:58:43;;;;;;;12.10;10.30;;;;;;;;;;108329;1269;43511;-35
2022/12/22 08:01:17;;;;;;;11.50;9.80;;;;;;;;;;108338;1259;42638;-36
2022/12/22 08:03:50;;;;;;;10.60;9.40;;;;;;;;;;108416;1266;39249;-34
2022/12/22 08:06:24;;;;;;;12.10;10.20;;;;;;;;;;108417;1267;40631;-35
2022/12/22 08:08:58;;;;;;;12.10;10.00;;;;;;;;;;108404;1267;44957;-35
2022/12/22 08:11:32;;;;;;;10.80;9.60;;;;;;;;;;108343;1260;42566;-35
2022/12/22 08:14:06;;;;;;;11.90;9.70;;;;;;;;;;108342;1269;40379;-37
2022/12/22 08:16:40;;;;;;;11.90;9.90;;;;;;;;;;108329;1269;40597;-37
2022/12/22 08:19:14;;;;;;;11.30;10.10;;;;;;;;;;108298;1269;43647;-37
2022/12/22 08:21:47;;;;;;;11.20;9.90;;;;;;;;;;108323;1259;42641;-37
2022/12/22 08:24:25;;;;;;;13.70;10.20;;;;;;;;;;108394;1266;39350;-37
2022/12/22 08:27:03;;;;;;;10.40;9.10;;;;;;;;;;108447;1269;40471;-37
2022/12/22 08:29:41;;;;;;;11.10;9.30;;;;;;;;;;108452;1267;43589;-37
2022/12/22 08:32:15;;;;;;;10.70;9.60;;;;;;;;;;108268;1262;42729;-37
2022/12/22 08:34:50;;;;;;;12.60;10.00;;;;;;;;;;108192;1269;39630;-36
2022/12/22 08:37:27;;;;;;;11.80;9.50;;;;;;;;;;108226;1269;41734;-36
2022/12/22 08:40:07;;;;;;;12.20;9.30;;;;;;;;;;108268;1269;43700;-35
2022/12/22 08:42:41;;;;;;;13.50;10.60;;;;;;;;;;108413;1259;42603;-36
2022/12/22 08:45:14;;;;;;;14.80;10.90;;;;;;;;;;108436;1269;39477;-36
2022/12/22 08:47:48;;;;;;;12.60;9.70;;;;;;;;;;108445;1282;40535;-36
2022/12/22 08:50:21;;;;;;;16.90;10.70;;;;;;;;;;108432;1266;43759;-36
2022/12/22 08:53:03;;;;;;;15.40;11.10;;;;;;;;;;108313;1261;42707;-36
2022/12/22 08:55:37;;;;;;;17.20;10.50;;;;;;;;;;108284;1267;39290;-35
2022/12/22 08:58:10;;;;;;;16.60;11.10;;;;;;;;;;108339;1268;40622;-36
2022/12/22 09:00:42;;;;;;;;;;;;;;;;;;108218;1269;43513;-36
2022/12/22 09:03:16;;;;;;;18.40;11.20;;;;;;;;;;108380;1267;42031;-35
2022/12/22 09:05:51;;;;;;;17.30;9.80;;;;;;;;;;108310;1267;39286;-35
2022/12/22 09:08:25;;;;;;;14.60;9.70;;;;;;;;;;108256;1282;40466;-35
2022/12/22 09:11:04;;;;;;;15.00;10.70;;;;;;;;;;108250;1266;43492;-35
2022/12/22 09:13:39;;;;;;;15.10;9.90;;;;;;;;;;108233;1260;42697;-35
2022/12/22 09:16:13;;;;;;;16.70;10.30;;;;;;;;;;108353;1268;39163;-35
2022/12/22 09:18:50;;;;;;;14.80;10.30;;;;;;;;;;108369;1268;40696;-34
2022/12/22 09:21:25;;;;;;;16.40;10.60;;;;;;;;;;108372;1283;45158;-34
2022/12/22 09:24:00;;;;;;;14.70;9.50;;;;;;;;;;108137;1259;309142;-34
2022/12/22 09:26:35;;;;;;;14.90;10.10;;;;;;;;;;108408;1266;39150;-34
2022/12/22 09:29:10;;;;;;;14.90;10.50;;;;;;;;;;108395;1266;40439;-34
2022/12/22 09:31:45;;;;;;;14.70;10.50;;;;;;;;;;108423;1269;43499;-34
2022/12/22 09:34:19;;;;;;;13.10;9.60;;;;;;;;;;108257;1262;48768;-35
2022/12/22 09:36:54;;;;;;;15.10;9.70;;;;;;;;;;108256;1284;38944;-35
2022/12/22 09:39:28;;;;;;;13.80;10.40;;;;;;;;;;108267;1269;40644;-35
2022/12/22 09:42:04;;;;;;;13.70;9.60;;;;;;;;;;107605;1284;895640;-35
2022/12/22 09:44:43;;;;;;;15.00;10.00;;;;;;;;;;108311;1260;48235;-35
2022/12/22 09:47:23;;;;;;;14.40;9.90;;;;;;;;;;108368;1269;41553;-35
2022/12/22 09:49:59;;;;;;;16.30;9.90;;;;;;;;;;108233;1283;175733;-35
2022/12/22 09:52:49;;;;;;;13.00;9.30;;;;;;;;;;108288;1269;43941;-35
2022/12/22 09:55:41;;;;;;;14.40;9.70;;;;;;;;;;108539;1270;50269;-35
2022/12/22 09:58:23;;;;;;;14.10;9.30;;;;;;;;;;108516;1267;39432;-35
2022/12/22 10:01:08;;;;;;;13.10;9.20;;;;;;;;;;108521;1266;40906;-33
2022/12/22 10:03:51;;;;;;;13.00;9.30;;;;;;;;;;108422;1266;43467;-34
2022/12/22 10:06:42;;;;;;;12.90;9.80;;;;;;;;;;108351;1269;42716;-33
2022/12/22 10:09:22;;;;;;;13.80;9.40;;;;;;;;;;108365;1268;39299;-33
2022/12/22 10:12:22;;;;;;;13.40;10.10;;;;;;;;;;108338;1269;40252;-33
2022/12/22 10:14:57;;;;;;;14.10;9.60;;;;;;;;;;108418;1259;43664;-33
2022/12/22 10:17:33;;;;;;;11.70;8.50;;;;;;;;;;108387;1267;43828;-33
2022/12/22 10:20:28;;;;;;;13.10;8.50;;;;;;;;;;108387;1270;40077;-33
2022/12/22 10:23:05;;;;;;;13.10;8.70;;;;;;;;;;108391;1269;40699;-33
2022/12/22 10:25:42;;;;;;;12.10;8.90;;;;;;;;;;108302;1262;43467;-33
2022/12/22 10:28:41;;;;;;;12.20;8.70;;;;;;;;;;108340;1269;42530;-33
2022/12/22 10:31:20;;;;;;;12.40;8.80;;;;;;;;;;108344;1269;40550;-33
2022/12/22 10:33:57;;;;;;;12.80;9.30;;;;;;;;;;108330;1259;40684;-33
2022/12/22 10:36:32;;;;;;;11.80;8.30;;;;;;;;;;108378;1269;43513;-33
2022/12/22 10:39:09;;;;;;;13.00;9.40;;;;;;;;;;108251;1282;175423;-33
2022/12/22 10:41:46;;;;;;;11.60;8.10;;;;;;;;;;108426;1268;40408;-34
2022/12/22 10:44:25;;;;;;;12.70;9.30;;;;;;;;;;108329;1262;40491;-34
2022/12/22 10:47:02;;;;;;;13.50;9.00;;;;;;;;;;108366;1269;44692;-33
2022/12/22 10:49:40;;;;;;;11.50;9.30;;;;;;;;;;108236;1268;175753;-33
2022/12/22 10:52:19;;;;;;;11.00;8.50;;;;;;;;;;108353;1269;41734;-33
2022/12/22 10:55:20;;;;;;;14.40;9.10;;;;;;;;;;108315;1269;41864;-34
2022/12/22 10:58:13;;;;;;;11.50;8.80;;;;;;;;;;108377;1282;43727;-33
2022/12/22 11:01:02;;;;;;;13.30;9.20;;;;;;;;;;108259;1267;175804;-33
2022/12/22 11:03:36;;;;;;;11.50;8.90;;;;;;;;;;108401;1269;39347;-33
2022/12/22 11:06:14;;;;;;;12.90;8.70;;;;;;;;;;108316;1262;40842;-33
2022/12/22 11:08:48;;;;;;;11.40;8.70;;;;;;;;;;108354;1269;43432;-33
2022/12/22 11:11:39;;;;;;;12.10;8.30;;;;;;;;;;108314;1268;42509;-33
2022/12/22 11:14:26;;;;;;;11.60;9.00;;;;;;;;;;108349;1269;39154;-34
2022/12/22 11:17:11;;;;;;;11.10;8.30;;;;;;;;;;108275;1263;46088;-36
2022/12/22 11:20:13;;;;;;;12.30;8.80;;;;;;;;;;108347;1282;43279;-35
2022/12/22 11:22:56;;;;;;;14.50;8.60;;;;;;;;;;108381;1269;42533;-35
2022/12/22 11:25:45;;;;;;;10.70;8.20;;;;;;;;;;108290;1262;39438;-35
2022/12/22 11:28:36;;;;;;;11.50;8.80;;;;;;;;;;108349;1269;40500;-33
2022/12/22 11:31:29;;;;;;;14.30;10.30;;;;;;;;;;108306;1270;43681;-33
2022/12/22 11:34:26;;;;;;;13.00;10.00;;;;;;;;;;108203;1269;175806;-32
2022/12/22 11:37:20;;;;;;;16.10;11.40;;;;;;;;;;108355;1262;39163;-34
2022/12/22 11:39:57;;;;;;;;;;;;;;;;;;108381;1269;40659;-34
2022/12/22 11:42:50;;;;;;;14.90;11.80;;;;;;;;;;108280;1268;43574;-34
2022/12/22 11:45:45;;;;;;;17.50;13.10;;;;;;;;;;108289;1269;42511;-33
2022/12/22 11:48:53;;;;;;;18.00;13.80;;;;;;;;;;108152;1269;175969;-34
2022/12/22 11:51:45;;;;;;;17.90;14.50;;;;;;;;;;108265;1269;40520;-34
2022/12/22 11:54:46;;;;;;;19.40;15.60;;;;;;;;;;108293;1270;43328;-34
2022/12/22 11:57:34;;;;;;;15.50;11.40;;;;;;;;;;108266;1262;42949;-34
2022/12/22 12:00:14;;;;;;;17.70;14.10;;;;;;;;;;108357;1269;38710;-34
2022/12/22 12:03:15;;;;;;;16.00;12.80;;;;;;;;;;108399;1267;39688;-34
2022/12/22 12:06:10;;;;;;;16.90;13.40;;;;;;;;;;108315;1262;44007;-35
2022/12/22 12:09:00;;;;;;;15.90;14.20;;;;;;;;;;108535;1269;42124;-35
2022/12/22 12:11:41;;;;;;;16.20;14.30;;;;;;;;;;108570;1269;28047;-36
2022/12/22 12:14:26;;;;;;;17.70;12.50;;;;;;;;;;108530;1269;28884;-36
2022/12/22 12:17:06;;;;;;;15.90;12.30;;;;;;;;;;108559;1260;29785;-36
2022/12/22 12:20:06;;;;;;;17.20;13.30;;;;;;;;;;108360;1270;43973;-35
2022/12/22 12:22:53;;;;;;;16.40;13.50;;;;;;;;;;108383;1269;38945;-35
2022/12/22 12:25:35;;;;;;;13.40;10.60;;;;;;;;;;108349;1269;40667;-35
2022/12/22 12:28:21;;;;;;;17.50;13.30;;;;;;;;;;108215;1261;43152;-36
2022/12/22 12:30:59;;;;;;;13.70;9.50;;;;;;;;;;108303;1269;42557;-36
2022/12/22 12:33:44;;;;;;;11.80;9.40;;;;;;;;;;108356;1269;38952;-36
2022/12/22 12:36:26;;;;;;;14.60;9.70;;;;;;;;;;108218;1275;40309;-36
2022/12/22 12:39:14;;;;;;;13.10;9.50;;;;;;;;;;107662;1269;894855;-36
2022/12/22 12:42:05;;;;;;;12.10;8.80;;;;;;;;;;108332;1270;42211;-36
2022/12/22 12:44:40;;;;;;;11.70;8.70;;;;;;;;;;108391;1268;40507;-36
2022/12/22 12:47:31;;;;;;;10.20;8.20;;;;;;;;;;108273;1262;40351;-36
2022/12/22 12:50:39;;;;;;;10.00;8.20;;;;;;;;;;108298;1269;44377;-36
2022/12/22 12:53:14;;;;;;;11.30;8.60;;;;;;;;;;108312;1269;42560;-36
2022/12/22 12:56:09;;;;;;;12.90;9.50;;;;;;;;;;108272;1284;38855;-36
2022/12/22 12:59:00;;;;;;;11.20;8.40;;;;;;;;;;108297;1262;40204;-37
2022/12/22 13:01:59;;;;;;;11.20;8.20;;;;;;;;;;108306;1269;43195;-38
2022/12/22 13:05:26;;;;;;;10.60;7.90;;;;;;;;;;108396;1268;42421;-34
2022/12/22 13:08:24;;;;;;;10.20;8.00;;;;;;;;;;108275;1269;38863;-33
2022/12/22 13:11:32;;;;;;;10.20;8.00;;;;;;;;;;108379;1269;40250;-33
2022/12/22 13:15:00;;;;;;;10.70;7.90;;;;;;;;;;108373;1269;44495;-34
2022/12/22 13:17:49;;;;;;;10.40;8.00;;;;;;;;;;108275;1262;42332;-34
2022/12/22 13:20:31;;;;;;;11.20;8.40;;;;;;;;;;108395;1269;38926;-35
2022/12/22 13:23:13;;;;;;;10.80;8.20;;;;;;;;;;108351;1270;40376;-34
2022/12/22 13:25:57;;;;;;;10.90;8.30;;;;;;;;;;108377;1283;44360;-35
2022/12/22 13:28:32;;;;;;;9.70;8.20;;;;;;;;;;108289;1262;42315;-35
2022/12/22 13:31:16;;;;;;;10.60;8.40;;;;;;;;;;108330;1273;40290;-34
2022/12/22 13:34:03;;;;;;;9.60;7.80;;;;;;;;;;108290;1270;40233;-34
2022/12/22 13:36:38;;;;;;;10.40;8.00;;;;;;;;;;108305;1269;43224;-35
2022/12/22 13:39:17;;;;;;;10.00;8.00;;;;;;;;;;108289;1272;42617;-35
2022/12/22 13:41:52;;;;;;;9.60;7.30;;;;;;;;;;108364;1267;39100;-34
2022/12/22 13:44:31;;;;;;;10.00;8.00;;;;;;;;;;108242;1269;175680;-35
2022/12/22 13:47:11;;;;;;;13.10;7.90;;;;;;;;;;108398;1267;44709;-36
2022/12/22 13:49:46;;;;;;;10.80;8.00;;;;;;;;;;108313;1262;42263;-36
2022/12/22 13:52:41;;;;;;;10.80;8.10;;;;;;;;;;108282;1269;38953;-36
2022/12/22 13:55:18;;;;;;;10.90;8.10;;;;;;;;;;108249;1277;40025;-35
2022/12/22 13:57:53;;;;;;;10.20;8.10;;;;;;;;;;108306;1269;43254;-34
2022/12/22 14:00:32;;;;;;;9.70;8.10;;;;;;;;;;108306;1260;50310;-35
2022/12/22 14:03:14;;;;;;;10.30;7.80;;;;;;;;;;108357;1269;38947;-36
2022/12/22 14:06:25;;;;;;;9.60;7.70;;;;;;;;;;108385;1270;41505;-36
2022/12/22 14:09:17;;;;;;;8.50;7.20;;;;;;;;;;108173;1262;175684;-35
2022/12/22 14:11:55;;;;;;;10.00;7.30;;;;;;;;;;108340;1269;42217;-33
2022/12/22 14:14:32;;;;;;;9.10;7.50;;;;;;;;;;108361;1270;39136;-36
2022/12/22 14:17:14;;;;;;;9.30;7.40;;;;;;;;;;108309;1271;40212;-35
2022/12/22 14:19:54;;;;;;;8.70;7.40;;;;;;;;;;108325;1269;43161;-35
2022/12/22 14:22:33;;;;;;;10.20;7.80;;;;;;;;;;108398;1270;42174;-35
2022/12/22 14:25:16;;;;;;;10.30;7.70;;;;;;;;;;108403;1268;39268;-35
2022/12/22 14:27:53;;;;;;;9.90;7.50;;;;;;;;;;108403;1269;41418;-36
2022/12/22 14:30:31;;;;;;;10.10;8.20;;;;;;;;;;108266;1262;43162;-34
2022/12/22 14:33:31;;;;;;;8.20;6.60;;;;;;;;;;108298;1269;43886;-36
2022/12/22 14:36:22;;;;;;;8.70;6.80;;;;;;;;;;108348;1270;38788;-36
2022/12/22 14:38:58;;;;;;;11.30;8.00;;;;;;;;;;108331;1269;40455;-36
2022/12/22 14:41:51;;;;;;;9.10;7.50;;;;;;;;;;108403;1279;51422;-36
2022/12/22 14:44:28;;;;;;;9.60;7.10;;;;;;;;;;108397;1270;43682;-36
2022/12/22 14:47:16;;;;;;;8.80;7.20;;;;;;;;;;108379;1267;38709;-36
2022/12/22 14:49:54;;;;;;;9.20;7.10;;;;;;;;;;108371;1264;42389;-37
2022/12/22 14:52:38;;;;;;;8.80;7.00;;;;;;;;;;108297;1284;45376;-36
2022/12/22 14:55:29;;;;;;;9.30;7.00;;;;;;;;;;108223;1277;42414;-37
2022/12/22 14:58:06;;;;;;;10.90;7.40;;;;;;;;;;108311;1269;38918;-36
2022/12/22 15:00:43;;;;;;;8.70;7.00;;;;;;;;;;108292;1259;40195;-36
2022/12/22 15:03:35;;;;;;;9.70;7.10;;;;;;;;;;108352;1283;43676;-36
2022/12/22 15:06:33;;;;;;;8.60;7.20;;;;;;;;;;108374;1283;44798;-36
2022/12/22 15:09:30;;;;;;;9.00;7.50;;;;;;;;;;108433;1267;41243;-36
2022/12/22 15:12:24;;;;;;;8.80;6.70;;;;;;;;;;108313;1259;45651;-36
2022/12/22 15:14:58;;;;;;;8.70;7.30;;;;;;;;;;108358;1268;43352;-36
2022/12/22 15:17:32;;;;;;;9.00;7.10;;;;;;;;;;108376;1269;42338;-36
2022/12/22 15:20:16;;;;;;;8.50;6.90;;;;;;;;;;108328;1270;40072;-37
2022/12/22 15:22:51;;;;;;;8.90;6.80;;;;;;;;;;108230;1262;46053;-36
2022/12/22 15:25:26;;;;;;;9.50;7.20;;;;;;;;;;108242;1270;43219;-36
2022/12/22 15:28:00;;;;;;;9.10;6.90;;;;;;;;;;108249;1275;42231;-36
2022/12/22 15:30:34;;;;;;;8.40;6.90;;;;;;;;;;108210;1269;39044;-36
2022/12/22 15:33:14;;;;;;;9.70;7.40;;;;;;;;;;108257;1269;45458;-36
2022/12/22 15:35:48;;;;;;;8.40;6.80;;;;;;;;;;108366;1283;43001;-36
2022/12/22 15:38:24;;;;;;;9.50;6.90;;;;;;;;;;108348;1269;43575;-36
2022/12/22 15:40:58;;;;;;;8.70;6.60;;;;;;;;;;108345;1283;40153;-36
2022/12/22 15:43:34;;;;;;;8.40;6.40;;;;;;;;;;108307;1274;48398;-36
2022/12/22 15:46:28;;;;;;;8.60;6.80;;;;;;;;;;108290;1270;43717;-36
2022/12/22 15:49:05;;;;;;;9.00;7.10;;;;;;;;;;108308;1269;42147;-36
2022/12/22 15:51:41;;;;;;;9.10;6.80;;;;;;;;;;108304;1271;38872;-37
2022/12/22 15:54:18;;;;;;;8.10;6.80;;;;;;;;;;108372;1270;40452;-36
2022/12/22 15:56:54;;;;;;;8.20;6.70;;;;;;;;;;108401;1270;43483;-37
2022/12/22 15:59:29;;;;;;;8.20;6.60;;;;;;;;;;108405;1282;42370;-36
2022/12/22 16:02:08;;;;;;;8.30;6.70;;;;;;;;;;107695;1262;894460;-36
2022/12/22 16:04:45;;;;;;;9.20;6.80;;;;;;;;;;108327;1284;41299;-36
2022/12/22 16:07:20;;;;;;;8.40;7.10;;;;;;;;;;108320;1269;43163;-36
2022/12/22 16:09:57;;;;;;;9.20;7.40;;;;;;;;;;108295;1269;42010;-36
2022/12/22 16:12:36;;;;;;;10.20;7.40;;;;;;;;;;108319;1263;39084;-36
2022/12/22 16:15:17;;;;;;;9.50;7.60;;;;;;;;;;108302;1270;41594;-36
2022/12/22 16:17:51;;;;;;;9.20;7.70;;;;;;;;;;108328;1270;44323;-36
2022/12/22 16:20:26;;;;;;;10.50;7.80;;;;;;;;;;108295;1271;175237;-37
2022/12/22 16:23:07;;;;;;;10.00;8.10;;;;;;;;;;108295;1260;38722;-37
2022/12/22 16:25:42;;;;;;;10.00;8.30;;;;;;;;;;108249;1276;40058;-37
2022/12/22 16:28:21;;;;;;;10.80;7.80;;;;;;;;;;108283;1275;44733;-37
2022/12/22 16:30:55;;;;;;;11.00;8.40;;;;;;;;;;108294;1280;42434;-37
2022/12/22 16:33:30;;;;;;;10.50;8.50;;;;;;;;;;108347;1269;40153;-37
2022/12/22 16:36:04;;;;;;;10.20;8.00;;;;;;;;;;108368;1268;40303;-37
2022/12/22 16:38:40;;;;;;;10.30;8.30;;;;;;;;;;108424;1267;43179;-36
2022/12/22 16:41:24;;;;;;;11.20;8.40;;;;;;;;;;108326;1270;42413;-36
2022/12/22 16:43:59;;;;;;;9.80;8.20;;;;;;;;;;108296;1264;40174;-36
2022/12/22 16:46:40;;;;;;;9.60;8.10;;;;;;;;;;108199;1269;195793;-37
2022/12/22 16:49:19;;;;;;;9.80;8.20;;;;;;;;;;108241;1269;43340;-36
2022/12/22 16:51:59;;;;;;;12.10;9.10;;;;;;;;;;108280;1275;42053;-36
2022/12/22 16:54:33;;;;;;;10.50;8.30;;;;;;;;;;108348;1260;40063;-36
2022/12/22 16:57:08;;;;;;;10.10;8.60;;;;;;;;;;108383;1269;40186;-37
2022/12/22 16:59:41;;;;;;;10.10;8.10;;;;;;;;;;108395;1270;43152;-37
2022/12/22 17:02:26;;;;;;;9.30;8.10;;;;;;;;;;108293;1267;175670;-36
2022/12/22 17:05:02;;;;;;;10.70;8.00;;;;;;;;;;108419;1266;45062;-37
2022/12/22 17:07:36;;;;;;;10.00;8.60;;;;;;;;;;108294;1270;40148;-37
2022/12/22 17:10:18;;;;;;;12.90;9.50;;;;;;;;;;108278;1269;43792;-36
2022/12/22 17:12:57;;;;;;;12.60;9.10;;;;;;;;;;108286;1269;42360;-36
2022/12/22 17:15:31;;;;;;;11.70;8.60;;;;;;;;;;108381;1275;46183;-35
2022/12/22 17:18:06;;;;;;;9.50;8.10;;;;;;;;;;108347;1268;40415;-36
2022/12/22 17:20:40;;;;;;;10.70;8.50;;;;;;;;;;108371;1273;43154;-35
2022/12/22 17:23:30;;;;;;;11.60;9.50;;;;;;;;;;108273;1271;42476;-35
2022/12/22 17:26:08;;;;;;;12.10;9.40;;;;;;;;;;107908;1275;336332;-36
2022/12/22 17:28:43;;;;;;;10.60;8.70;;;;;;;;;;108315;1269;40204;-36
2022/12/22 17:31:20;;;;;;;11.60;9.40;;;;;;;;;;108211;1270;43633;-37
2022/12/22 17:33:54;;;;;;;11.10;8.80;;;;;;;;;;108272;1270;42567;-37
2022/12/22 17:36:36;;;;;;;10.50;9.10;;;;;;;;;;108390;1267;39071;-37
2022/12/22 17:39:15;;;;;;;10.30;8.60;;;;;;;;;;108372;1270;40366;-37
2022/12/22 17:41:50;;;;;;;12.50;9.00;;;;;;;;;;108411;1268;43179;-37
2022/12/22 17:44:30;;;;;;;9.50;7.40;;;;;;;;;;108342;1263;42295;-37
2022/12/22 17:47:06;;;;;;;11.70;8.70;;;;;;;;;;108289;1269;38847;-37
2022/12/22 17:49:40;;;;;;;10.90;8.80;;;;;;;;;;108323;1284;39918;-37
2022/12/22 17:52:21;;;;;;;10.70;8.40;;;;;;;;;;108289;1270;43197;-35
2022/12/22 17:54:56;;;;;;;10.70;8.90;;;;;;;;;;108364;1260;42257;-34
2022/12/22 17:57:33;;;;;;;9.60;8.20;;;;;;;;;;108433;1268;39103;-34
2022/12/22 18:00:20;;;;;;;10.50;8.40;;;;;;;;;;108405;1283;41331;-36
2022/12/22 18:02:55;;;;;;;11.70;8.80;;;;;;;;;;108434;1270;44452;-36
2022/12/22 18:05:35;;;;;;;11.20;8.70;;;;;;;;;;108263;1268;42297;-37
2022/12/22 18:08:16;;;;;;;13.90;10.10;;;;;;;;;;108324;1269;39080;-36
2022/12/22 18:10:51;;;;;;;11.90;9.00;;;;;;;;;;108367;1269;40228;-35
2022/12/22 18:13:25;;;;;;;11.50;9.50;;;;;;;;;;108418;1284;42974;-35
2022/12/22 18:16:02;;;;;;;12.60;9.50;;;;;;;;;;108444;1267;42413;-35
2022/12/22 18:18:42;;;;;;;11.70;9.40;;;;;;;;;;108537;1283;39057;-35
2022/12/22 18:21:22;;;;;;;12.70;10.10;;;;;;;;;;108547;1272;40154;-35
2022/12/22 18:23:56;;;;;;;11.30;9.70;;;;;;;;;;108553;1267;44337;-35
2022/12/22 18:26:32;;;;;;;12.90;10.00;;;;;;;;;;108400;1261;42355;-35
2022/12/22 18:29:08;;;;;;;11.40;9.40;;;;;;;;;;108370;1273;38914;-35
2022/12/22 18:31:43;;;;;;;13.00;10.00;;;;;;;;;;108401;1275;40182;-35
2022/12/22 18:34:17;;;;;;;12.00;9.80;;;;;;;;;;108398;1270;43144;-35
2022/12/22 18:36:51;;;;;;;12.20;9.30;;;;;;;;;;108475;1265;42288;-35
2022/12/22 18:39:25;;;;;;;12.50;9.90;;;;;;;;;;108532;1271;38931;-35
2022/12/22 18:42:00;;;;;;;14.20;10.10;;;;;;;;;;108522;1270;40192;-35
2022/12/22 18:44:37;;;;;;;12.10;10.00;;;;;;;;;;108530;1267;43634;-35
2022/12/22 18:47:12;;;;;;;11.70;9.30;;;;;;;;;;108362;1262;43412;-35
2022/12/22 18:49:47;;;;;;;11.80;9.50;;;;;;;;;;108396;1284;38720;-35
2022/12/22 18:52:24;;;;;;;11.10;9.50;;;;;;;;;;108405;1270;40182;-35
2022/12/22 18:54:58;;;;;;;11.40;9.80;;;;;;;;;;108388;1284;42963;-35
2022/12/22 18:57:32;;;;;;;10.80;9.50;;;;;;;;;;108515;1260;43220;-35
2022/12/22 19:00:17;;;;;;;11.30;9.50;;;;;;;;;;108493;1267;38913;-35
2022/12/22 19:02:54;;;;;;;11.90;9.40;;;;;;;;;;108525;1267;40367;-35